createdAt,value
2023-03-18T00:02:21.824Z,99602.09
2023-03-18T00:07:24.571Z,99601.94
2023-03-18T00:12:27.882Z,99611.75
2023-03-18T00:17:32.387Z,99613.72
2023-03-18T00:22:36.002Z,99611.06
2023-03-18T00:27:40.217Z,99607.53
2023-03-18T00:32:44.406Z,99601.63
2023-03-18T00:37:48.729Z,99606.41
2023-03-18T00:42:57.558Z,99610.31
2023-03-18T00:48:01.791Z,99616.47
2023-03-18T00:53:05.327Z,99603.97
2023-03-18T00:58:08.610Z,99609.22
2023-03-18T01:03:14.104Z,99608.66
2023-03-18T01:08:17.313Z,99609.38
2023-03-18T01:13:21.304Z,99606.72
2023-03-18T01:18:26.033Z,99612.09
2023-03-18T01:23:30.218Z,99611.97
2023-03-18T01:28:33.751Z,99611.69
2023-03-18T01:33:39.021Z,99606.94
2023-03-18T01:38:42.405Z,99620.28
2023-03-18T01:43:48.501Z,99616.75
2023-03-18T01:48:52.891Z,99613.19
2023-03-18T01:54:00.135Z,99609.78
2023-03-18T01:59:03.186Z,99614.06
2023-03-18T02:04:10.349Z,99622.13
2023-03-18T02:14:25.372Z,99610.16
2023-03-18T02:19:43.547Z,99606.84
2023-03-18T02:25:10.262Z,99605.13
2023-03-18T02:30:19.157Z,99615.56
2023-03-18T02:35:25.021Z,99617.38
2023-03-18T02:40:31.781Z,99616.78
2023-03-18T02:45:46.118Z,99623.28
2023-03-18T02:50:50.212Z,99623.53
2023-03-18T02:55:53.042Z,99635.53
2023-03-18T03:00:58.444Z,99643.00
2023-03-18T03:06:01.685Z,99631.75
2023-03-18T03:11:05.485Z,99639.97
2023-03-18T03:16:14.009Z,99637.50
2023-03-18T03:21:17.708Z,99635.19
2023-03-18T03:26:20.717Z,99647.19
2023-03-18T03:31:26.651Z,99651.09
2023-03-18T03:36:29.765Z,99650.34
2023-03-18T03:41:32.877Z,99658.69
2023-03-18T03:46:37.293Z,99657.97
2023-03-18T03:51:40.578Z,99661.75
2023-03-18T03:56:43.802Z,99658.44
2023-03-18T04:01:48.399Z,99666.78
2023-03-18T04:06:51.258Z,99666.16
2023-03-18T04:11:54.065Z,99668.97
2023-03-18T04:17:00.358Z,99668.25
2023-03-18T04:22:04.659Z,99674.69
2023-03-18T04:27:07.885Z,99677.75
2023-03-18T04:32:12.483Z,99668.81
2023-03-18T04:37:19.739Z,99669.91
2023-03-18T04:42:24.455Z,99669.28
2023-03-18T04:47:29.083Z,99672.94
2023-03-18T04:52:33.588Z,99679.44
2023-03-18T04:57:37.638Z,99676.00
2023-03-18T05:02:45.279Z,99674.28
2023-03-18T05:07:48.580Z,99677.31
2023-03-18T05:12:54.380Z,99683.69
2023-03-18T05:18:06.286Z,99679.50
2023-03-18T05:23:10.385Z,99677.81
2023-03-18T05:28:19.676Z,99694.19
2023-03-18T05:33:35.990Z,99694.19
2023-03-18T05:38:39.109Z,99694.53
2023-03-18T05:43:42.703Z,99693.69
2023-03-18T05:48:47.198Z,99695.63
2023-03-18T05:53:50.480Z,99712.00
2023-03-18T05:58:58.675Z,99704.03
2023-03-18T06:04:24.896Z,99692.56
2023-03-18T06:09:28.744Z,99690.97
2023-03-18T06:14:31.637Z,99698.19
2023-03-18T06:19:39.831Z,99708.09
2023-03-18T06:24:45.942Z,99717.09
2023-03-18T06:29:52.019Z,99710.00
2023-03-18T06:34:56.785Z,99721.63
2023-03-18T06:40:00.215Z,99711.13
2023-03-18T06:45:03.273Z,99712.09
2023-03-18T06:50:20.601Z,99722.84
2023-03-18T06:55:23.841Z,99730.03
2023-03-18T07:00:27.445Z,99734.56
2023-03-18T07:05:33.282Z,99733.63
2023-03-18T07:10:37.099Z,99739.84
2023-03-18T07:15:46.649Z,99748.78
2023-03-18T07:20:51.099Z,99746.09
2023-03-18T07:25:54.155Z,99748.78
2023-03-18T07:30:58.050Z,99764.06
2023-03-18T07:36:02.331Z,99768.44
2023-03-18T07:41:06.081Z,99757.56
2023-03-18T07:46:09.045Z,99761.13
2023-03-18T07:51:13.370Z,99764.56
2023-03-18T07:56:16.289Z,99761.88
2023-03-18T08:01:19.521Z,99775.31
2023-03-18T08:06:23.957Z,99780.34
2023-03-18T08:11:27.354Z,99793.66
2023-03-18T08:16:30.208Z,99790.16
2023-03-18T08:21:34.477Z,99785.97
2023-03-18T08:26:37.618Z,99786.03
2023-03-18T08:31:40.483Z,99792.53
2023-03-18T08:36:45.083Z,99799.81
2023-03-18T08:41:48.713Z,99808.91
2023-03-18T08:46:51.636Z,99809.41
2023-03-18T08:51:56.573Z,99809.59
2023-03-18T08:57:00.545Z,99811.81
2023-03-18T09:02:03.796Z,99800.72
2023-03-18T09:07:08.069Z,99802.31
2023-03-18T09:12:11.983Z,99809.19
2023-03-18T09:17:14.857Z,99819.47
2023-03-18T09:22:19.342Z,99814.59
2023-03-18T09:27:22.166Z,99822.38
2023-03-18T09:32:25.630Z,99818.47
2023-03-18T09:37:29.833Z,99815.53
2023-03-18T09:42:50.438Z,99813.34
2023-03-18T09:48:09.652Z,99818.53
2023-03-18T09:53:20.830Z,99818.28
2023-03-18T09:58:29.577Z,99828.44
2023-03-18T10:03:38.437Z,99820.13
2023-03-18T10:08:54.297Z,99828.59
2023-03-18T10:14:08.445Z,99832.56
2023-03-18T10:19:11.379Z,99820.44
2023-03-18T10:24:28.083Z,99823.00
2023-03-18T10:29:40.620Z,99829.13
2023-03-18T10:34:57.706Z,99828.41
2023-03-18T10:40:02.318Z,99825.44
2023-03-18T10:45:14.879Z,99826.81
2023-03-18T10:50:21.510Z,99830.38
2023-03-18T10:55:31.990Z,99827.06
2023-03-18T11:00:35.609Z,99832.97
2023-03-18T11:05:38.941Z,99825.47
2023-03-18T11:10:47.564Z,99826.00
2023-03-18T11:15:52.983Z,99825.25
2023-03-18T11:21:00.876Z,99831.13
2023-03-18T11:31:18.206Z,99825.78
2023-03-18T11:36:24.985Z,99827.84
2023-03-18T11:41:30.467Z,99823.56
2023-03-18T11:46:37.556Z,99817.19
2023-03-18T11:51:48.473Z,99819.88
2023-03-18T11:56:57.267Z,99817.69
2023-03-18T12:02:19.550Z,99815.06
2023-03-18T12:07:42.902Z,99817.44
2023-03-18T12:13:00.664Z,99811.88
2023-03-18T12:18:18.024Z,99813.19
2023-03-18T12:23:52.056Z,99810.75
2023-03-18T12:29:36.284Z,99819.69
2023-03-18T12:34:56.100Z,99808.72
2023-03-18T12:40:27.514Z,99810.16
2023-03-18T12:45:37.448Z,99812.91
2023-03-18T12:50:48.426Z,99803.91
2023-03-18T12:55:58.601Z,99808.09
2023-03-18T13:01:09.798Z,99803.69
2023-03-18T13:06:20.246Z,99805.16
2023-03-18T13:11:36.046Z,99801.13
2023-03-18T13:16:42.101Z,99790.25
2023-03-18T13:21:51.522Z,99794.41
2023-03-18T13:27:19.624Z,99788.28
2023-03-18T13:32:41.363Z,99796.00
2023-03-18T13:38:20.656Z,99782.38
2023-03-18T13:43:26.591Z,99787.19
2023-03-18T13:48:33.592Z,99783.84
2023-03-18T13:53:43.982Z,99783.97
2023-03-18T13:58:48.458Z,99780.53
2023-03-18T14:03:59.780Z,99783.97
2023-03-18T14:09:24.325Z,99770.34
2023-03-18T14:14:57.603Z,99764.06
2023-03-18T14:20:17.043Z,99766.56
2023-03-18T14:25:24.454Z,99762.94
2023-03-18T14:30:55.701Z,99763.66
2023-03-18T14:36:03.273Z,99756.91
2023-03-18T14:41:17.448Z,99761.06
2023-03-18T14:46:25.284Z,99747.22
2023-03-18T14:51:32.583Z,99759.09
2023-03-18T14:56:40.461Z,99755.03
2023-03-18T15:01:48.007Z,99748.88
2023-03-18T15:06:53.277Z,99749.88
2023-03-18T15:11:57.679Z,99744.34
2023-03-18T15:17:02.254Z,99743.47
2023-03-18T15:22:08.697Z,99744.47
2023-03-18T15:27:16.001Z,99746.38
2023-03-18T15:32:24.660Z,99745.59
2023-03-18T15:37:42.153Z,99744.78
2023-03-18T15:42:45.915Z,99743.09
2023-03-18T15:47:49.291Z,99741.06
2023-03-18T15:53:03.705Z,99746.34
2023-03-18T15:58:24.069Z,99740.19
2023-03-18T16:03:29.302Z,99736.22
2023-03-18T16:08:33.715Z,99745.66
2023-03-18T16:13:38.847Z,99748.44
2023-03-18T16:18:43.322Z,99745.06
2023-03-18T16:23:48.033Z,99764.31
2023-03-18T16:28:50.762Z,99758.31
2023-03-18T16:33:56.064Z,99761.28
2023-03-18T16:39:00.128Z,99765.88
2023-03-18T16:44:03.042Z,99763.97
2023-03-18T16:49:06.077Z,99766.69
2023-03-18T16:54:18.941Z,99769.22
2023-03-18T16:59:22.166Z,99769.72
2023-03-18T17:04:29.242Z,99772.53
2023-03-18T17:09:33.577Z,99769.69
2023-03-18T17:14:39.752Z,99777.09
2023-03-18T17:19:42.631Z,99778.84
2023-03-18T17:24:47.271Z,99787.91
2023-03-18T17:29:50.607Z,99791.06
2023-03-18T17:34:54.811Z,99793.88
2023-03-18T17:39:59.254Z,99800.63
2023-03-18T17:45:08.822Z,99804.06
2023-03-18T17:50:15.005Z,99799.22
2023-03-18T17:55:22.666Z,99801.50
2023-03-18T18:00:27.419Z,99802.63
2023-03-18T18:05:30.705Z,99796.81
2023-03-18T18:10:35.366Z,99795.19
2023-03-18T18:15:38.183Z,99803.28
2023-03-18T18:20:41.121Z,99803.06
2023-03-18T18:25:45.439Z,99807.38
2023-03-18T18:30:48.653Z,99802.44
2023-03-18T18:35:51.494Z,99804.28
2023-03-18T18:40:57.412Z,99802.34
2023-03-18T18:46:01.141Z,99797.81
2023-03-18T18:51:04.724Z,99803.59
2023-03-18T18:56:15.884Z,99800.88
2023-03-18T19:01:19.734Z,99804.94
2023-03-18T19:06:27.070Z,99798.84
2023-03-18T19:11:31.474Z,99801.88
2023-03-18T19:16:35.845Z,99803.69
2023-03-18T19:21:38.617Z,99797.56
2023-03-18T19:26:43.038Z,99802.16
2023-03-18T19:31:45.903Z,99808.91
2023-03-18T19:36:52.894Z,99808.91
2023-03-18T19:41:57.124Z,99807.44
2023-03-18T19:47:01.060Z,99811.25
2023-03-18T19:52:04.137Z,99811.59
2023-03-18T19:57:16.874Z,99809.63
2023-03-18T20:02:22.790Z,99815.03
2023-03-18T20:07:27.722Z,99822.66
2023-03-18T20:12:35.770Z,99828.63
2023-03-18T20:17:40.304Z,99822.50
2023-03-18T20:22:48.104Z,99827.66
2023-03-18T20:27:56.089Z,99825.22
2023-03-18T20:33:00.156Z,99829.09
2023-03-18T20:38:07.294Z,99830.63
2023-03-18T20:43:15.379Z,99839.81
2023-03-18T20:48:18.574Z,99840.75
2023-03-18T20:53:24.648Z,99842.41
2023-03-18T20:58:29.026Z,99840.28
2023-03-18T21:03:34.430Z,99838.09
2023-03-18T21:08:37.284Z,99853.78
2023-03-18T21:13:41.712Z,99843.88
2023-03-18T21:18:46.397Z,99847.66
2023-03-18T21:23:49.787Z,99842.53
2023-03-18T21:28:53.948Z,99852.56
2023-03-18T21:33:57.456Z,99856.22
2023-03-18T21:39:00.278Z,99854.56
2023-03-18T21:44:04.516Z,99861.91
2023-03-18T21:49:07.491Z,99857.81
2023-03-18T21:54:18.324Z,99854.41
2023-03-18T21:59:22.449Z,99852.94
2023-03-18T22:04:25.241Z,99862.38
2023-03-18T22:09:28.226Z,99854.19
2023-03-18T22:14:32.417Z,99855.41
2023-03-18T22:19:35.143Z,99851.34
2023-03-18T22:24:37.938Z,99848.53
2023-03-18T22:29:42.074Z,99851.84
2023-03-18T22:34:45.048Z,99849.16
2023-03-18T22:39:47.809Z,99850.25
2023-03-18T22:44:52.327Z,99851.25
2023-03-18T22:49:55.245Z,99842.03
2023-03-18T22:55:00.974Z,99856.03
2023-03-18T23:00:14.968Z,99852.09
2023-03-18T23:05:20.416Z,99862.88
2023-03-18T23:10:23.459Z,99854.53
2023-03-18T23:15:27.585Z,99853.41
2023-03-18T23:20:30.416Z,99846.69
2023-03-18T23:25:33.402Z,99851.72
2023-03-18T23:30:40.056Z,99848.28
2023-03-18T23:35:43.959Z,99852.44
2023-03-18T23:40:46.929Z,99849.38
2023-03-18T23:45:51.241Z,99849.53
2023-03-18T23:50:54.088Z,99853.44
2023-03-18T23:55:56.958Z,99848.66
